sensor_id;sensor_type;location;lat;lon;timestamp;pressure;altitude;pressure_sealevel;temperature;humidity
17781;BME280;8498;52.516;13.790;2022-12-18T00:03:02;102776.22;;;-3.27;89.19
17781;BME280;8498;52.516;13.790;2022-12-18T00:08:25;102785.41;;;-3.43;89.07
17781;BME280;8498;52.516;13.790;2022-12-18T00:13:48;102796.41;;;-3.53;89.94
17781;BME280;8498;52.516;13.790;2022-12-18T00:19:11;102798.94;;;-3.56;90.84
17781;BME280;8498;52.516;13.790;2022-12-18T00:24:34;102800.63;;;-3.58;90.29
17781;BME280;8498;52.516;13.790;2022-12-18T00:29:56;102802.75;;;-3.41;89.72
17781;BME280;8498;52.516;13.790;2022-12-18T00:35:19;102797.44;;;-3.47;89.43
17781;BME280;8498;52.516;13.790;2022-12-18T00:40:41;102787.00;;;-3.48;89.37
17781;BME280;8498;52.516;13.790;2022-12-18T00:46:03;102790.50;;;-3.46;88.95
17781;BME280;8498;52.516;13.790;2022-12-18T00:51:26;102789.88;;;-3.36;89.35
17781;BME280;8498;52.516;13.790;2022-12-18T00:56:49;102781.38;;;-3.29;88.36
17781;BME280;8498;52.516;13.790;2022-12-18T01:02:14;102784.84;;;-3.28;88.49
17781;BME280;8498;52.516;13.790;2022-12-18T01:07:38;102771.66;;;-3.38;88.80
17781;BME280;8498;52.516;13.790;2022-12-18T01:13:00;102780.56;;;-3.26;88.76
17781;BME280;8498;52.516;13.790;2022-12-18T01:18:23;102787.31;;;-3.35;88.10
17781;BME280;8498;52.516;13.790;2022-12-18T01:23:46;102780.38;;;-3.36;88.69
17781;BME280;8498;52.516;13.790;2022-12-18T01:29:08;102794.03;;;-3.44;88.50
17781;BME280;8498;52.516;13.790;2022-12-18T01:34:31;102802.72;;;-3.42;88.45
17781;BME280;8498;52.516;13.790;2022-12-18T01:39:53;102806.19;;;-3.43;87.45
17781;BME280;8498;52.516;13.790;2022-12-18T01:45:26;102816.31;;;-3.54;88.39
17781;BME280;8498;52.516;13.790;2022-12-18T01:50:49;102818.28;;;-3.44;87.96
17781;BME280;8498;52.516;13.790;2022-12-18T01:56:14;102813.09;;;-3.44;86.80
17781;BME280;8498;52.516;13.790;2022-12-18T02:01:37;102809.31;;;-3.56;87.44
17781;BME280;8498;52.516;13.790;2022-12-18T02:19:00;102815.09;;;-3.68;87.74
17781;BME280;8498;52.516;13.790;2022-12-18T02:24:35;102822.94;;;-3.66;87.44
17781;BME280;8498;52.516;13.790;2022-12-18T02:30:02;102822.72;;;-3.76;87.32
17781;BME280;8498;52.516;13.790;2022-12-18T02:35:29;102833.75;;;-3.83;87.13
17781;BME280;8498;52.516;13.790;2022-12-18T02:40:54;102825.84;;;-3.89;87.74
17781;BME280;8498;52.516;13.790;2022-12-18T02:46:39;102844.00;;;-3.89;87.64
17781;BME280;8498;52.516;13.790;2022-12-18T02:52:33;102840.69;;;-3.83;87.12
17781;BME280;8498;52.516;13.790;2022-12-18T03:03:55;102848.72;;;-3.74;87.20
17781;BME280;8498;52.516;13.790;2022-12-18T03:09:24;102862.72;;;-3.67;86.91
17781;BME280;8498;52.516;13.790;2022-12-18T03:15:08;102864.03;;;-3.85;86.68
17781;BME280;8498;52.516;13.790;2022-12-18T03:20:42;102871.75;;;-3.88;87.31
17781;BME280;8498;52.516;13.790;2022-12-18T03:26:10;102878.47;;;-3.94;86.77
17781;BME280;8498;52.516;13.790;2022-12-18T03:31:37;102875.84;;;-3.96;87.09
17781;BME280;8498;52.516;13.790;2022-12-18T03:37:02;102867.09;;;-3.99;87.25
17781;BME280;8498;52.516;13.790;2022-12-18T03:42:44;102862.00;;;-3.96;86.89
17781;BME280;8498;52.516;13.790;2022-12-18T03:48:46;102858.63;;;-3.92;87.32
17781;BME280;8498;52.516;13.790;2022-12-18T03:54:14;102859.53;;;-3.90;86.57
17781;BME280;8498;52.516;13.790;2022-12-18T03:59:50;102852.41;;;-3.99;86.56
17781;BME280;8498;52.516;13.790;2022-12-18T04:05:18;102862.09;;;-3.92;86.33
17781;BME280;8498;52.516;13.790;2022-12-18T04:10:41;102869.50;;;-4.07;86.28
17781;BME280;8498;52.516;13.790;2022-12-18T04:16:04;102868.31;;;-4.18;86.09
17781;BME280;8498;52.516;13.790;2022-12-18T04:21:27;102874.69;;;-4.07;85.81
17781;BME280;8498;52.516;13.790;2022-12-18T04:26:50;102874.25;;;-4.22;85.18
17781;BME280;8498;52.516;13.790;2022-12-18T04:32:17;102874.41;;;-4.18;86.43
17781;BME280;8498;52.516;13.790;2022-12-18T04:37:41;102891.69;;;-4.18;86.98
17781;BME280;8498;52.516;13.790;2022-12-18T04:43:05;102893.78;;;-4.05;86.37
17781;BME280;8498;52.516;13.790;2022-12-18T04:48:27;102884.00;;;-4.14;86.26
17781;BME280;8498;52.516;13.790;2022-12-18T04:53:50;102891.72;;;-4.17;86.59
17781;BME280;8498;52.516;13.790;2022-12-18T04:59:12;102896.94;;;-4.15;86.43
17781;BME280;8498;52.516;13.790;2022-12-18T05:04:35;102902.22;;;-4.12;86.77
17781;BME280;8498;52.516;13.790;2022-12-18T05:09:57;102899.78;;;-4.08;86.47
17781;BME280;8498;52.516;13.790;2022-12-18T05:15:19;102894.34;;;-4.17;85.51
17781;BME280;8498;52.516;13.790;2022-12-18T05:20:41;102911.56;;;-4.19;86.17
17781;BME280;8498;52.516;13.790;2022-12-18T05:26:05;102910.94;;;-4.10;85.65
17781;BME280;8498;52.516;13.790;2022-12-18T05:31:28;102918.00;;;-4.06;86.42
17781;BME280;8498;52.516;13.790;2022-12-18T05:36:55;102932.44;;;-4.14;86.24
17781;BME280;8498;52.516;13.790;2022-12-18T05:42:18;102929.22;;;-4.35;86.20
17781;BME280;8498;52.516;13.790;2022-12-18T05:47:40;102926.69;;;-4.34;86.85
17781;BME280;8498;52.516;13.790;2022-12-18T05:53:03;102942.63;;;-4.22;86.74
17781;BME280;8498;52.516;13.790;2022-12-18T05:58:25;102949.66;;;-4.18;85.92
17781;BME280;8498;52.516;13.790;2022-12-18T06:03:48;102951.38;;;-4.18;85.63
17781;BME280;8498;52.516;13.790;2022-12-18T06:09:11;102957.81;;;-4.34;85.69
17781;BME280;8498;52.516;13.790;2022-12-18T06:14:33;102961.97;;;-4.40;86.25
17781;BME280;8498;52.516;13.790;2022-12-18T06:19:56;102965.97;;;-4.52;86.28
17781;BME280;8498;52.516;13.790;2022-12-18T06:25:19;102987.69;;;-4.48;87.57
17781;BME280;8498;52.516;13.790;2022-12-18T06:30:46;102975.94;;;-4.35;86.48
17781;BME280;8498;52.516;13.790;2022-12-18T06:36:11;102985.31;;;-4.40;86.68
17781;BME280;8498;52.516;13.790;2022-12-18T06:41:33;103013.13;;;-4.36;86.67
17781;BME280;8498;52.516;13.790;2022-12-18T06:46:56;103008.00;;;-4.33;86.56
17781;BME280;8498;52.516;13.790;2022-12-18T06:52:18;103017.06;;;-4.21;86.52
17781;BME280;8498;52.516;13.790;2022-12-18T06:57:40;103012.19;;;-4.10;87.00
17781;BME280;8498;52.516;13.790;2022-12-18T07:03:03;103011.56;;;-4.01;86.79
17781;BME280;8498;52.516;13.790;2022-12-18T07:08:25;103016.34;;;-4.15;86.25
17781;BME280;8498;52.516;13.790;2022-12-18T07:13:48;103021.63;;;-4.12;86.91
17781;BME280;8498;52.516;13.790;2022-12-18T07:19:10;103020.84;;;-4.10;86.77
17781;BME280;8498;52.516;13.790;2022-12-18T07:24:33;103019.03;;;-4.12;87.96
17781;BME280;8498;52.516;13.790;2022-12-18T07:29:57;103014.66;;;-4.13;87.43
17781;BME280;8498;52.516;13.790;2022-12-18T07:35:19;103024.44;;;-4.04;87.59
17781;BME280;8498;52.516;13.790;2022-12-18T07:40:46;103024.69;;;-3.97;87.39
17781;BME280;8498;52.516;13.790;2022-12-18T07:46:09;103022.34;;;-3.88;87.63
17781;BME280;8498;52.516;13.790;2022-12-18T07:51:34;103026.59;;;-3.90;87.80
17781;BME280;8498;52.516;13.790;2022-12-18T07:56:56;103032.94;;;-3.80;87.26
17781;BME280;8498;52.516;13.790;2022-12-18T08:02:19;103026.13;;;-3.77;87.55
17781;BME280;8498;52.516;13.790;2022-12-18T08:07:42;103047.16;;;-3.67;87.34
17781;BME280;8498;52.516;13.790;2022-12-18T08:13:05;103032.50;;;-3.65;87.33
17781;BME280;8498;52.516;13.790;2022-12-18T08:18:27;103027.38;;;-3.62;87.75
17781;BME280;8498;52.516;13.790;2022-12-18T08:23:51;103028.31;;;-3.60;87.38
17781;BME280;8498;52.516;13.790;2022-12-18T08:29:14;103026.84;;;-3.51;87.47
17781;BME280;8498;52.516;13.790;2022-12-18T08:34:42;103028.63;;;-3.48;87.15
17781;BME280;8498;52.516;13.790;2022-12-18T08:40:05;103031.31;;;-3.45;87.45
17781;BME280;8498;52.516;13.790;2022-12-18T08:45:27;103034.81;;;-3.45;87.84
17781;BME280;8498;52.516;13.790;2022-12-18T08:50:56;103036.88;;;-3.32;88.32
17781;BME280;8498;52.516;13.790;2022-12-18T08:56:20;103048.38;;;-3.23;88.44
17781;BME280;8498;52.516;13.790;2022-12-18T09:01:43;103054.09;;;-3.04;88.45
17781;BME280;8498;52.516;13.790;2022-12-18T09:07:05;103060.41;;;-2.94;87.82
17781;BME280;8498;52.516;13.790;2022-12-18T09:12:28;103068.56;;;-2.80;87.71
17781;BME280;8498;52.516;13.790;2022-12-18T09:17:50;103072.16;;;-2.75;87.49
17781;BME280;8498;52.516;13.790;2022-12-18T09:23:14;103070.41;;;-2.75;86.94
17781;BME280;8498;52.516;13.790;2022-12-18T09:28:37;103072.28;;;-2.69;86.93
17781;BME280;8498;52.516;13.790;2022-12-18T09:34:00;103075.22;;;-2.55;87.40
17781;BME280;8498;52.516;13.790;2022-12-18T09:39:22;103075.97;;;-2.61;87.66
17781;BME280;8498;52.516;13.790;2022-12-18T09:44:52;103078.56;;;-2.61;87.95
17781;BME280;8498;52.516;13.790;2022-12-18T09:55:45;103081.41;;;-2.52;87.33
17781;BME280;8498;52.516;13.790;2022-12-18T10:01:14;103052.25;;;-2.36;87.51
17781;BME280;8498;52.516;13.790;2022-12-18T10:06:56;103045.25;;;-2.40;87.14
17781;BME280;8498;52.516;13.790;2022-12-18T10:13:07;103038.53;;;-2.30;87.65
17781;BME280;8498;52.516;13.790;2022-12-18T10:24:36;103024.25;;;-2.46;88.30
17781;BME280;8498;52.516;13.790;2022-12-18T10:30:11;103034.72;;;-2.44;88.09
17781;BME280;8498;52.516;13.790;2022-12-18T10:35:35;103010.50;;;-2.42;87.89
17781;BME280;8498;52.516;13.790;2022-12-18T10:41:04;103010.56;;;-2.37;87.73
17781;BME280;8498;52.516;13.790;2022-12-18T10:46:28;103003.19;;;-2.19;87.84
17781;BME280;8498;52.516;13.790;2022-12-18T10:51:51;102988.66;;;-2.06;88.35
17781;BME280;8498;52.516;13.790;2022-12-18T11:02:52;102971.09;;;-2.16;88.12
17781;BME280;8498;52.516;13.790;2022-12-18T11:08:22;102976.06;;;-2.29;88.95
17781;BME280;8498;52.516;13.790;2022-12-18T11:19:23;102981.22;;;-2.32;89.17
17781;BME280;8498;52.516;13.790;2022-12-18T11:24:55;102972.41;;;-2.37;89.51
17781;BME280;8498;52.516;13.790;2022-12-18T11:30:38;102968.50;;;-2.16;89.86
17781;BME280;8498;52.516;13.790;2022-12-18T11:36:02;102970.22;;;-2.18;89.41
17781;BME280;8498;52.516;13.790;2022-12-18T11:41:39;102960.81;;;-2.10;89.14
17781;BME280;8498;52.516;13.790;2022-12-18T11:47:44;102968.09;;;-1.94;89.08
17781;BME280;8498;52.516;13.790;2022-12-18T11:53:10;102965.59;;;-1.90;88.36
17781;BME280;8498;52.516;13.790;2022-12-18T11:58:50;102979.53;;;-1.86;88.61
17781;BME280;8498;52.516;13.790;2022-12-18T12:21:41;102981.41;;;-1.80;88.09
17781;BME280;8498;52.516;13.790;2022-12-18T12:38:35;102999.91;;;-1.67;86.72
17781;BME280;8498;52.516;13.790;2022-12-18T12:44:02;103011.13;;;-1.71;87.21
17781;BME280;8498;52.516;13.790;2022-12-18T12:49:29;103021.28;;;-1.83;87.02
17781;BME280;8498;52.516;13.790;2022-12-18T12:55:02;103017.25;;;-1.69;87.82
17781;BME280;8498;52.516;13.790;2022-12-18T13:06:50;103005.34;;;-1.56;87.38
17781;BME280;8498;52.516;13.790;2022-12-18T13:12:11;102988.69;;;-1.63;86.87
17781;BME280;8498;52.516;13.790;2022-12-18T13:23:36;102967.81;;;-1.63;86.77
17781;BME280;8498;52.516;13.790;2022-12-18T13:29:00;102959.13;;;-1.63;87.40
17781;BME280;8498;52.516;13.790;2022-12-18T13:34:29;102985.28;;;-1.59;87.29
17781;BME280;8498;52.516;13.790;2022-12-18T13:39:54;102993.13;;;-1.59;87.37
17781;BME280;8498;52.516;13.790;2022-12-18T13:45:37;102983.06;;;-1.37;87.57
17781;BME280;8498;52.516;13.790;2022-12-18T13:51:06;102977.91;;;-1.34;86.59
17781;BME280;8498;52.516;13.790;2022-12-18T13:56:31;102964.16;;;-1.26;86.22
17781;BME280;8498;52.516;13.790;2022-12-18T14:12:50;102945.16;;;-1.68;87.44
17781;BME280;8498;52.516;13.790;2022-12-18T14:29:31;102942.38;;;-1.76;88.37
17781;BME280;8498;52.516;13.790;2022-12-18T14:34:54;102929.38;;;-1.74;87.92
17781;BME280;8498;52.516;13.790;2022-12-18T14:40:17;102927.59;;;-1.78;87.89
17781;BME280;8498;52.516;13.790;2022-12-18T14:45:41;102913.44;;;-1.91;88.25
17781;BME280;8498;52.516;13.790;2022-12-18T14:51:26;102903.94;;;-1.89;88.77
17781;BME280;8498;52.516;13.790;2022-12-18T14:56:51;102892.63;;;-1.91;89.02
17781;BME280;8498;52.516;13.790;2022-12-18T15:02:26;102872.56;;;-1.95;88.32
17781;BME280;8498;52.516;13.790;2022-12-18T15:07:52;102873.31;;;-2.02;88.57
17781;BME280;8498;52.516;13.790;2022-12-18T15:13:22;102877.53;;;-2.07;88.35
17781;BME280;8498;52.516;13.790;2022-12-18T15:18:46;102902.88;;;-2.00;89.02
17781;BME280;8498;52.516;13.790;2022-12-18T15:24:24;102928.84;;;-2.03;88.80
17781;BME280;8498;52.516;13.790;2022-12-18T15:35:29;102935.75;;;-2.05;89.22
17781;BME280;8498;52.516;13.790;2022-12-18T15:40:53;102946.25;;;-2.01;88.85
17781;BME280;8498;52.516;13.790;2022-12-18T15:51:39;102919.16;;;-2.10;88.73
17781;BME280;8498;52.516;13.790;2022-12-18T15:57:02;102926.00;;;-2.15;88.66
17781;BME280;8498;52.516;13.790;2022-12-18T16:02:43;102923.34;;;-2.18;88.48
17781;BME280;8498;52.516;13.790;2022-12-18T16:08:06;102918.19;;;-2.15;88.19
17781;BME280;8498;52.516;13.790;2022-12-18T16:13:28;102915.53;;;-2.17;87.95
17781;BME280;8498;52.516;13.790;2022-12-18T16:18:51;102905.22;;;-2.12;88.61
17781;BME280;8498;52.516;13.790;2022-12-18T16:24:16;102899.13;;;-2.13;88.14
17781;BME280;8498;52.516;13.790;2022-12-18T16:29:38;102899.69;;;-2.28;87.89
17781;BME280;8498;52.516;13.790;2022-12-18T16:35:01;102879.78;;;-2.26;88.63
17781;BME280;8498;52.516;13.790;2022-12-18T16:40:23;102882.28;;;-2.32;88.39
17781;BME280;8498;52.516;13.790;2022-12-18T16:45:45;102880.47;;;-2.36;88.38
17781;BME280;8498;52.516;13.790;2022-12-18T16:51:07;102885.72;;;-2.33;88.79
17781;BME280;8498;52.516;13.790;2022-12-18T16:56:30;102873.81;;;-2.22;88.01
17781;BME280;8498;52.516;13.790;2022-12-18T17:01:53;102877.22;;;-2.24;87.93
17781;BME280;8498;52.516;13.790;2022-12-18T17:07:17;102869.16;;;-2.36;87.91
17781;BME280;8498;52.516;13.790;2022-12-18T17:12:39;102859.44;;;-2.45;87.95
17781;BME280;8498;52.516;13.790;2022-12-18T17:18:02;102875.72;;;-2.55;87.80
17781;BME280;8498;52.516;13.790;2022-12-18T17:23:24;102884.28;;;-2.61;88.08
17781;BME280;8498;52.516;13.790;2022-12-18T17:28:47;102882.28;;;-2.74;87.57
17781;BME280;8498;52.516;13.790;2022-12-18T17:34:10;102871.75;;;-2.78;88.04
17781;BME280;8498;52.516;13.790;2022-12-18T17:39:32;102883.00;;;-2.81;88.20
17781;BME280;8498;52.516;13.790;2022-12-18T17:44:55;102896.75;;;-2.85;87.71
17781;BME280;8498;52.516;13.790;2022-12-18T17:50:17;102891.44;;;-2.91;88.06
17781;BME280;8498;52.516;13.790;2022-12-18T17:55:40;102891.25;;;-2.99;87.73
17781;BME280;8498;52.516;13.790;2022-12-18T18:01:03;102880.63;;;-3.08;88.53
17781;BME280;8498;52.516;13.790;2022-12-18T18:06:25;102872.59;;;-3.18;87.83
17781;BME280;8498;52.516;13.790;2022-12-18T18:11:48;102862.81;;;-3.28;88.07
17781;BME280;8498;52.516;13.790;2022-12-18T18:17:28;102847.25;;;-3.27;88.49
17781;BME280;8498;52.516;13.790;2022-12-18T18:22:51;102840.22;;;-3.31;88.60
17781;BME280;8498;52.516;13.790;2022-12-18T18:28:14;102833.06;;;-3.41;88.37
17781;BME280;8498;52.516;13.790;2022-12-18T18:33:36;102826.09;;;-3.42;88.77
17781;BME280;8498;52.516;13.790;2022-12-18T18:38:59;102833.94;;;-3.41;88.07
17781;BME280;8498;52.516;13.790;2022-12-18T18:44:22;102820.06;;;-3.43;88.26
17781;BME280;8498;52.516;13.790;2022-12-18T18:49:47;102817.34;;;-3.47;88.13
17781;BME280;8498;52.516;13.790;2022-12-18T18:55:09;102804.88;;;-3.60;88.13
17781;BME280;8498;52.516;13.790;2022-12-18T19:00:39;102802.19;;;-3.65;88.10
17781;BME280;8498;52.516;13.790;2022-12-18T19:06:03;102773.59;;;-3.66;88.17
17781;BME280;8498;52.516;13.790;2022-12-18T19:11:26;102762.22;;;-3.70;88.29
17781;BME280;8498;52.516;13.790;2022-12-18T19:17:09;102767.22;;;-3.79;87.78
17781;BME280;8498;52.516;13.790;2022-12-18T19:22:31;102768.94;;;-3.80;88.13
17781;BME280;8498;52.516;13.790;2022-12-18T19:27:53;102761.09;;;-3.81;87.76
17781;BME280;8498;52.516;13.790;2022-12-18T19:33:16;102759.47;;;-3.78;88.24
17781;BME280;8498;52.516;13.790;2022-12-18T19:39:00;102761.13;;;-3.80;87.95
17781;BME280;8498;52.516;13.790;2022-12-18T19:44:22;102743.75;;;-3.82;87.78
17781;BME280;8498;52.516;13.790;2022-12-18T19:49:45;102741.00;;;-3.90;87.99
17781;BME280;8498;52.516;13.790;2022-12-18T19:55:07;102741.94;;;-3.86;87.56
17781;BME280;8498;52.516;13.790;2022-12-18T20:00:30;102759.38;;;-3.81;87.32
17781;BME280;8498;52.516;13.790;2022-12-18T20:05:52;102731.56;;;-3.86;87.43
17781;BME280;8498;52.516;13.790;2022-12-18T20:11:15;102736.06;;;-3.79;87.43
17781;BME280;8498;52.516;13.790;2022-12-18T20:16:38;102731.84;;;-3.73;86.97
17781;BME280;8498;52.516;13.790;2022-12-18T20:22:01;102717.06;;;-3.77;86.67
17781;BME280;8498;52.516;13.790;2022-12-18T20:27:23;102719.59;;;-3.80;86.90
17781;BME280;8498;52.516;13.790;2022-12-18T20:32:46;102713.44;;;-3.83;87.16
17781;BME280;8498;52.516;13.790;2022-12-18T20:38:08;102696.88;;;-3.88;87.64
17781;BME280;8498;52.516;13.790;2022-12-18T20:43:33;102697.84;;;-3.83;87.55
17781;BME280;8498;52.516;13.790;2022-12-18T20:48:55;102701.41;;;-3.80;86.51
17781;BME280;8498;52.516;13.790;2022-12-18T20:54:19;102705.88;;;-3.73;87.23
17781;BME280;8498;52.516;13.790;2022-12-18T20:59:42;102695.47;;;-3.76;87.08
17781;BME280;8498;52.516;13.790;2022-12-18T21:05:09;102705.75;;;-3.79;87.30
17781;BME280;8498;52.516;13.790;2022-12-18T21:10:31;102704.84;;;-3.81;87.16
17781;BME280;8498;52.516;13.790;2022-12-18T21:15:54;102701.50;;;-3.77;87.14
17781;BME280;8498;52.516;13.790;2022-12-18T21:21:16;102689.41;;;-3.75;86.90
17781;BME280;8498;52.516;13.790;2022-12-18T21:26:48;102684.22;;;-3.75;87.46
17781;BME280;8498;52.516;13.790;2022-12-18T21:32:12;102676.75;;;-3.59;87.03
17781;BME280;8498;52.516;13.790;2022-12-18T21:37:35;102682.88;;;-3.57;87.29
17781;BME280;8498;52.516;13.790;2022-12-18T21:42:57;102672.47;;;-3.57;86.71
17781;BME280;8498;52.516;13.790;2022-12-18T21:48:38;102666.25;;;-3.65;86.87
17781;BME280;8498;52.516;13.790;2022-12-18T21:54:01;102668.00;;;-3.64;87.30
17781;BME280;8498;52.516;13.790;2022-12-18T21:59:33;102666.28;;;-3.62;87.73
17781;BME280;8498;52.516;13.790;2022-12-18T22:04:55;102661.13;;;-3.61;86.82
17781;BME280;8498;52.516;13.790;2022-12-18T22:10:18;102652.25;;;-3.71;87.60
17781;BME280;8498;52.516;13.790;2022-12-18T22:15:41;102657.63;;;-3.64;87.08
17781;BME280;8498;52.516;13.790;2022-12-18T22:21:04;102657.50;;;-3.69;86.93
17781;BME280;8498;52.516;13.790;2022-12-18T22:26:29;102649.78;;;-3.66;87.23
17781;BME280;8498;52.516;13.790;2022-12-18T22:31:59;102629.09;;;-3.61;86.82
17781;BME280;8498;52.516;13.790;2022-12-18T22:37:21;102625.50;;;-3.68;87.16
17781;BME280;8498;52.516;13.790;2022-12-18T22:42:43;102626.38;;;-3.67;86.84
17781;BME280;8498;52.516;13.790;2022-12-18T22:48:05;102600.31;;;-3.71;87.31
17781;BME280;8498;52.516;13.790;2022-12-18T22:53:28;102597.88;;;-3.64;86.73
17781;BME280;8498;52.516;13.790;2022-12-18T22:58:50;102585.69;;;-3.67;87.29
17781;BME280;8498;52.516;13.790;2022-12-18T23:04:12;102569.97;;;-3.73;87.29
17781;BME280;8498;52.516;13.790;2022-12-18T23:09:35;102559.56;;;-3.75;87.75
17781;BME280;8498;52.516;13.790;2022-12-18T23:14:57;102543.19;;;-3.71;87.06
17781;BME280;8498;52.516;13.790;2022-12-18T23:20:20;102540.56;;;-3.72;87.36
17781;BME280;8498;52.516;13.790;2022-12-18T23:25:42;102528.56;;;-3.67;87.47
17781;BME280;8498;52.516;13.790;2022-12-18T23:31:06;102518.09;;;-3.70;87.08
17781;BME280;8498;52.516;13.790;2022-12-18T23:36:30;102521.50;;;-3.73;87.43
17781;BME280;8498;52.516;13.790;2022-12-18T23:42:01;102521.72;;;-3.63;87.62
17781;BME280;8498;52.516;13.790;2022-12-18T23:47:24;102508.59;;;-3.70;86.84
17781;BME280;8498;52.516;13.790;2022-12-18T23:52:46;102498.19;;;-3.70;87.03
17781;BME280;8498;52.516;13.790;2022-12-18T23:58:15;102465.44;;;-3.61;87.19
